createdAt,value
2022-09-03T00:01:42.658Z,100.00
2022-09-03T00:04:20.937Z,100.00
2022-09-03T00:07:03.272Z,100.00
2022-09-03T00:09:37.639Z,100.00
2022-09-03T00:12:15.450Z,100.00
2022-09-03T00:14:59.846Z,100.00
2022-09-03T00:17:38.569Z,100.00
2022-09-03T00:20:13.604Z,100.00
2022-09-03T00:22:46.266Z,100.00
2022-09-03T00:25:20.574Z,100.00
2022-09-03T00:27:58.394Z,100.00
2022-09-03T00:30:27.930Z,100.00
2022-09-03T00:33:05.626Z,100.00
2022-09-03T00:35:38.578Z,100.00
2022-09-03T00:38:07.747Z,100.00
2022-09-03T00:41:02.633Z,100.00
2022-09-03T00:43:48.107Z,100.00
2022-09-03T00:46:24.996Z,100.00
2022-09-03T00:49:21.021Z,100.00
2022-09-03T00:52:00.835Z,100.00
2022-09-03T00:54:41.863Z,100.00
2022-09-03T00:57:35.977Z,100.00
2022-09-03T01:00:08.912Z,100.00
2022-09-03T01:02:57.106Z,100.00
2022-09-03T01:05:44.405Z,100.00
2022-09-03T01:08:49.136Z,100.00
2022-09-03T01:11:26.799Z,100.00
2022-09-03T01:14:06.481Z,100.00
2022-09-03T01:16:41.597Z,100.00
2022-09-03T01:19:35.608Z,100.00
2022-09-03T01:22:28.011Z,100.00
2022-09-03T01:25:17.637Z,100.00
2022-09-03T01:28:20.693Z,100.00
2022-09-03T01:30:57.471Z,100.00
2022-09-03T01:33:34.999Z,100.00
2022-09-03T01:36:13.905Z,100.00
2022-09-03T01:38:51.435Z,100.00
2022-09-03T01:41:53.745Z,100.00
2022-09-03T01:44:39.317Z,100.00
2022-09-03T01:47:20.262Z,100.00
2022-09-03T01:49:59.468Z,100.00
2022-09-03T01:52:42.086Z,100.00
2022-09-03T01:55:29.746Z,100.00
2022-09-03T01:58:03.646Z,100.00
2022-09-03T02:00:37.850Z,100.00
2022-09-03T02:03:11.026Z,100.00
2022-09-03T02:05:39.447Z,100.00
2022-09-03T02:08:11.616Z,100.00
2022-09-03T02:10:44.658Z,100.00
2022-09-03T02:13:18.251Z,100.00
2022-09-03T02:15:52.235Z,100.00
2022-09-03T02:18:25.460Z,100.00
2022-09-03T02:20:55.773Z,100.00
2022-09-03T02:23:28.301Z,100.00
2022-09-03T02:25:59.669Z,100.00
2022-09-03T02:28:29.275Z,100.00
2022-09-03T02:30:59.332Z,100.00
2022-09-03T02:33:28.676Z,100.00
2022-09-03T02:35:57.190Z,100.00
2022-09-03T02:38:28.324Z,100.00
2022-09-03T02:40:56.758Z,100.00
2022-09-03T02:43:31.872Z,100.00
2022-09-03T02:46:06.146Z,100.00
2022-09-03T02:48:34.945Z,100.00
2022-09-03T02:51:14.267Z,100.00
2022-09-03T02:53:45.163Z,100.00
2022-09-03T02:56:14.143Z,100.00
2022-09-03T02:58:42.450Z,100.00
2022-09-03T03:01:14.591Z,100.00
2022-09-03T03:03:52.109Z,100.00
2022-09-03T03:06:21.077Z,100.00
2022-09-03T03:08:50.885Z,100.00
2022-09-03T03:11:19.931Z,100.00
2022-09-03T03:13:48.301Z,100.00
2022-09-03T03:16:18.754Z,100.00
2022-09-03T03:18:47.283Z,100.00
2022-09-03T03:21:18.973Z,100.00
2022-09-03T03:23:47.327Z,100.00
2022-09-03T03:26:19.484Z,100.00
2022-09-03T03:28:49.003Z,100.00
2022-09-03T03:31:21.313Z,100.00
2022-09-03T03:33:54.138Z,100.00
2022-09-03T03:36:24.937Z,100.00
2022-09-03T03:38:56.507Z,100.00
2022-09-03T03:41:27.117Z,100.00
2022-09-03T03:43:57.212Z,100.00
2022-09-03T03:46:30.759Z,100.00
2022-09-03T03:48:59.690Z,100.00
2022-09-03T03:51:28.048Z,100.00
2022-09-03T03:54:00.186Z,100.00
2022-09-03T03:56:31.529Z,100.00
2022-09-03T03:59:01.400Z,100.00
2022-09-03T04:01:31.486Z,100.00
2022-09-03T04:04:01.133Z,100.00
2022-09-03T04:06:30.268Z,100.00
2022-09-03T04:08:58.753Z,100.00
2022-09-03T04:11:27.576Z,100.00
2022-09-03T04:13:55.892Z,100.00
2022-09-03T04:16:26.564Z,100.00
2022-09-03T04:18:58.042Z,100.00
2022-09-03T04:21:29.251Z,100.00
2022-09-03T04:23:59.001Z,100.00
2022-09-03T04:26:31.415Z,100.00
2022-09-03T04:29:01.897Z,100.00
2022-09-03T04:31:30.462Z,100.00
2022-09-03T04:34:01.907Z,100.00
2022-09-03T04:36:31.985Z,100.00
2022-09-03T04:39:02.810Z,100.00
2022-09-03T04:41:32.631Z,100.00
2022-09-03T04:44:01.775Z,100.00
2022-09-03T04:46:32.959Z,100.00
2022-09-03T04:49:03.351Z,100.00
2022-09-03T04:51:32.541Z,100.00
2022-09-03T04:54:03.263Z,100.00
2022-09-03T04:56:33.603Z,100.00
2022-09-03T04:59:04.007Z,100.00
2022-09-03T05:01:35.338Z,100.00
2022-09-03T05:04:06.709Z,100.00
2022-09-03T05:06:37.285Z,100.00
2022-09-03T05:09:06.700Z,100.00
2022-09-03T05:11:35.718Z,100.00
2022-09-03T05:14:05.784Z,100.00
2022-09-03T05:16:34.320Z,100.00
2022-09-03T05:19:06.051Z,100.00
2022-09-03T05:21:36.033Z,100.00
2022-09-03T05:24:05.750Z,100.00
2022-09-03T05:26:38.390Z,100.00
2022-09-03T05:29:09.901Z,100.00
2022-09-03T05:31:39.960Z,100.00
2022-09-03T05:34:18.525Z,100.00
2022-09-03T05:36:49.864Z,100.00
2022-09-03T05:39:20.946Z,100.00
2022-09-03T05:41:52.352Z,100.00
2022-09-03T05:44:23.550Z,100.00
2022-09-03T05:46:53.953Z,100.00
2022-09-03T05:49:27.330Z,100.00
2022-09-03T05:52:07.482Z,100.00
2022-09-03T05:54:48.008Z,100.00
2022-09-03T05:57:22.671Z,100.00
2022-09-03T05:59:52.842Z,100.00
2022-09-03T06:02:27.658Z,100.00
2022-09-03T06:05:00.318Z,100.00
2022-09-03T06:07:29.627Z,100.00
2022-09-03T06:09:58.571Z,100.00
2022-09-03T06:12:29.376Z,100.00
2022-09-03T06:14:58.818Z,100.00
2022-09-03T06:17:47.294Z,100.00
2022-09-03T06:20:36.819Z,100.00
2022-09-03T06:23:11.628Z,100.00
2022-09-03T06:25:44.029Z,100.00
2022-09-03T06:28:16.393Z,100.00
2022-09-03T06:30:45.109Z,100.00
2022-09-03T06:33:35.376Z,100.00
2022-09-03T06:36:09.132Z,100.00
2022-09-03T06:38:41.109Z,100.00
2022-09-03T06:41:28.026Z,100.00
2022-09-03T06:44:03.608Z,100.00
2022-09-03T06:46:34.993Z,100.00
2022-09-03T06:49:20.377Z,100.00
2022-09-03T06:51:50.556Z,100.00
2022-09-03T06:54:23.172Z,100.00
2022-09-03T06:57:14.139Z,100.00
2022-09-03T06:59:43.911Z,100.00
2022-09-03T07:02:12.878Z,100.00
2022-09-03T07:04:42.051Z,100.00
2022-09-03T07:07:21.627Z,100.00
2022-09-03T07:09:50.274Z,100.00
2022-09-03T07:12:19.404Z,100.00
2022-09-03T07:14:48.769Z,100.00
2022-09-03T07:17:22.727Z,100.00
2022-09-03T07:19:51.226Z,100.00
2022-09-03T07:22:21.376Z,100.00
2022-09-03T07:24:54.906Z,100.00
2022-09-03T07:27:30.831Z,100.00
2022-09-03T07:29:59.548Z,100.00
2022-09-03T07:32:28.095Z,100.00
2022-09-03T07:34:58.592Z,100.00
2022-09-03T07:37:31.797Z,100.00
2022-09-03T07:40:02.060Z,100.00
2022-09-03T07:42:31.142Z,100.00
2022-09-03T07:44:59.827Z,100.00
2022-09-03T07:47:29.561Z,100.00
2022-09-03T07:49:58.906Z,100.00
2022-09-03T07:52:29.349Z,100.00
2022-09-03T07:54:59.601Z,100.00
2022-09-03T07:57:28.187Z,100.00
2022-09-03T07:59:57.136Z,100.00
2022-09-03T08:02:34.765Z,100.00
2022-09-03T08:05:03.446Z,100.00
2022-09-03T08:07:33.536Z,100.00
2022-09-03T08:10:02.362Z,100.00
2022-09-03T08:12:32.802Z,100.00
2022-09-03T08:15:01.428Z,100.00
2022-09-03T08:17:30.239Z,100.00
2022-09-03T08:19:59.278Z,100.00
2022-09-03T08:22:28.252Z,100.00
2022-09-03T08:24:58.592Z,100.00
2022-09-03T08:27:27.804Z,100.00
2022-09-03T08:29:56.367Z,100.00
2022-09-03T08:32:27.981Z,100.00
2022-09-03T08:35:10.078Z,100.00
2022-09-03T08:37:41.429Z,100.00
2022-09-03T08:40:13.226Z,100.00
2022-09-03T08:43:08.973Z,100.00
2022-09-03T08:45:39.493Z,100.00
2022-09-03T08:48:13.867Z,100.00
2022-09-03T08:50:51.621Z,100.00
2022-09-03T08:53:28.345Z,100.00
2022-09-03T08:56:06.083Z,100.00
2022-09-03T08:58:44.095Z,100.00
2022-09-03T09:01:24.638Z,100.00
2022-09-03T09:04:06.914Z,100.00
2022-09-03T09:06:49.879Z,100.00
2022-09-03T09:09:32.403Z,100.00
2022-09-03T09:12:18.280Z,100.00
2022-09-03T09:15:00.337Z,99.76
2022-09-03T09:18:00.400Z,100.00
2022-09-03T09:20:42.840Z,99.44
2022-09-03T09:23:16.891Z,94.54
2022-09-03T09:25:54.343Z,97.34
2022-09-03T09:28:31.318Z,92.21
2022-09-03T09:31:03.191Z,92.41
2022-09-03T09:33:35.403Z,92.69
2022-09-03T09:36:08.435Z,95.18
2022-09-03T09:38:40.047Z,97.72
2022-09-03T09:41:12.866Z,90.96
2022-09-03T09:43:43.377Z,92.52
2022-09-03T09:46:15.965Z,90.54
2022-09-03T09:48:52.220Z,88.34
2022-09-03T09:51:23.465Z,86.05
2022-09-03T09:54:04.677Z,84.03
2022-09-03T09:56:33.260Z,88.13
2022-09-03T09:59:08.332Z,87.75
2022-09-03T10:01:48.587Z,85.31
2022-09-03T10:04:32.893Z,83.61
2022-09-03T10:07:19.805Z,80.15
2022-09-03T10:10:00.132Z,80.09
2022-09-03T10:12:35.719Z,76.80
2022-09-03T10:15:24.660Z,72.80
2022-09-03T10:18:03.138Z,73.35
2022-09-03T10:20:44.357Z,74.42
2022-09-03T10:23:22.932Z,72.96
2022-09-03T10:26:07.398Z,71.16
2022-09-03T10:28:39.910Z,69.45
2022-09-03T10:31:43.411Z,68.31
2022-09-03T10:34:18.666Z,65.85
2022-09-03T10:37:01.008Z,63.94
2022-09-03T10:39:50.191Z,64.92
2022-09-03T10:42:42.471Z,62.58
2022-09-03T10:45:33.618Z,62.19
2022-09-03T10:48:27.540Z,61.51
2022-09-03T10:51:02.444Z,60.37
2022-09-03T10:54:01.577Z,62.67
2022-09-03T10:56:38.323Z,59.21
2022-09-03T10:59:29.438Z,60.26
2022-09-03T11:02:24.721Z,57.53
2022-09-03T11:05:02.891Z,57.52
2022-09-03T11:07:41.192Z,57.17
2022-09-03T11:10:19.559Z,56.73
2022-09-03T11:12:57.430Z,56.88
2022-09-03T11:15:32.638Z,56.15
2022-09-03T11:18:15.180Z,55.58
2022-09-03T11:20:46.307Z,55.70
2022-09-03T11:23:15.115Z,55.13
2022-09-03T11:25:58.382Z,54.25
2022-09-03T11:28:45.420Z,53.54
2022-09-03T11:31:34.230Z,54.11
2022-09-03T11:34:09.209Z,52.07
2022-09-03T11:36:42.710Z,50.16
2022-09-03T11:39:36.297Z,49.88
2022-09-03T11:42:11.305Z,50.14
2022-09-03T11:44:51.312Z,49.20
2022-09-03T11:47:26.016Z,48.79
2022-09-03T11:50:06.009Z,48.28
2022-09-03T11:52:40.396Z,48.36
2022-09-03T11:55:09.777Z,47.32
2022-09-03T11:57:43.704Z,47.89
2022-09-03T12:00:18.014Z,47.96
2022-09-03T12:02:49.918Z,47.93
2022-09-03T12:05:35.867Z,47.16
2022-09-03T12:08:37.240Z,47.28
2022-09-03T12:11:27.275Z,46.10
2022-09-03T12:14:13.881Z,46.50
2022-09-03T12:17:13.066Z,47.45
2022-09-03T12:19:47.350Z,46.33
2022-09-03T12:22:16.194Z,46.31
2022-09-03T12:24:46.242Z,45.73
2022-09-03T12:27:25.103Z,44.75
2022-09-03T12:30:00.664Z,45.71
2022-09-03T12:32:33.288Z,43.34
2022-09-03T12:35:14.393Z,44.48
2022-09-03T12:41:23.538Z,43.10
2022-09-03T12:43:39.016Z,43.76
2022-09-03T12:46:17.639Z,44.25
2022-09-03T12:51:55.785Z,42.78
2022-09-03T12:54:50.651Z,41.62
2022-09-03T12:57:28.364Z,41.60
2022-09-03T13:00:05.527Z,41.87
2022-09-03T13:02:51.010Z,41.10
2022-09-03T13:05:33.172Z,41.16
2022-09-03T13:08:08.348Z,41.02
2022-09-03T13:10:42.056Z,40.74
2022-09-03T13:13:27.824Z,39.77
2022-09-03T13:16:34.311Z,40.40
2022-09-03T13:19:11.380Z,39.95
2022-09-03T13:21:53.040Z,40.37
2022-09-03T13:25:04.736Z,39.37
2022-09-03T13:27:46.150Z,39.04
2022-09-03T13:30:23.425Z,38.76
2022-09-03T13:32:59.506Z,38.37
2022-09-03T13:35:43.205Z,37.27
2022-09-03T13:38:27.157Z,37.36
2022-09-03T13:41:04.969Z,37.24
2022-09-03T13:43:43.120Z,36.46
2022-09-03T13:46:19.622Z,36.26
2022-09-03T13:49:53.607Z,36.03
2022-09-03T13:52:33.286Z,35.06
2022-09-03T13:55:11.741Z,35.80
2022-09-03T13:57:50.725Z,35.27
2022-09-03T14:00:31.438Z,35.43
2022-09-03T14:03:16.499Z,35.15
2022-09-03T14:06:08.452Z,34.83
2022-09-03T14:09:05.877Z,34.63
2022-09-03T14:11:51.249Z,34.03
2022-09-03T14:14:37.459Z,33.78
2022-09-03T14:17:16.402Z,33.73
2022-09-03T14:20:02.185Z,33.38
2022-09-03T14:22:45.352Z,33.07
2022-09-03T14:25:18.736Z,33.02
2022-09-03T14:27:47.380Z,34.04
2022-09-03T14:30:41.815Z,32.01
2022-09-03T14:33:20.894Z,32.74
2022-09-03T14:36:04.332Z,32.55
2022-09-03T14:38:58.934Z,32.05
2022-09-03T14:41:53.509Z,31.85
2022-09-03T14:44:57.641Z,31.38
2022-09-03T14:47:44.969Z,31.96
2022-09-03T14:50:35.450Z,31.58
2022-09-03T14:53:27.842Z,30.98
2022-09-03T14:56:33.602Z,31.17
2022-09-03T14:59:24.808Z,31.07
2022-09-03T15:02:16.454Z,30.43
2022-09-03T15:05:11.751Z,30.58
2022-09-03T15:07:49.920Z,30.50
2022-09-03T15:10:37.793Z,30.35
2022-09-03T15:13:17.667Z,31.13
2022-09-03T15:16:23.641Z,30.68
2022-09-03T15:19:21.893Z,31.09
2022-09-03T15:22:26.793Z,30.23
2022-09-03T15:25:12.784Z,30.40
2022-09-03T15:28:39.315Z,30.32
2022-09-03T15:31:28.188Z,29.92
2022-09-03T15:34:30.700Z,30.96
2022-09-03T15:37:13.065Z,29.69
2022-09-03T15:39:48.476Z,30.40
2022-09-03T15:42:29.271Z,30.06
2022-09-03T15:45:18.031Z,30.54
2022-09-03T15:47:58.157Z,29.81
2022-09-03T15:51:00.686Z,30.69
2022-09-03T15:53:40.864Z,30.72
2022-09-03T15:56:22.108Z,31.02
2022-09-03T15:59:01.020Z,30.90
2022-09-03T16:01:41.089Z,30.91
2022-09-03T16:04:53.624Z,31.97
2022-09-03T16:07:28.417Z,32.00
2022-09-03T16:10:24.201Z,31.97
2022-09-03T16:13:06.044Z,31.96
2022-09-03T16:15:43.246Z,32.30
2022-09-03T16:18:24.402Z,32.16
2022-09-03T16:21:00.561Z,32.34
2022-09-03T16:23:34.365Z,33.31
2022-09-03T16:26:09.754Z,33.21
2022-09-03T16:28:48.943Z,33.31
2022-09-03T16:31:41.679Z,33.37
2022-09-03T16:34:23.095Z,33.97
2022-09-03T16:37:05.865Z,35.36
2022-09-03T16:39:55.984Z,35.06
2022-09-03T16:42:33.499Z,35.38
2022-09-03T16:45:19.060Z,36.75
2022-09-03T16:48:09.904Z,36.87
2022-09-03T16:50:58.319Z,37.62
2022-09-03T16:53:41.041Z,38.46
2022-09-03T16:56:33.802Z,38.80
2022-09-03T16:59:19.121Z,40.24
2022-09-03T17:02:18.241Z,39.87
2022-09-03T17:05:13.989Z,41.52
2022-09-03T17:08:09.233Z,41.15
2022-09-03T17:10:47.089Z,41.65
2022-09-03T17:13:54.032Z,42.86
2022-09-03T17:16:41.918Z,45.14
2022-09-03T17:19:23.691Z,46.64
2022-09-03T17:22:07.582Z,44.22
2022-09-03T17:24:47.906Z,45.49
2022-09-03T17:27:48.618Z,47.05
2022-09-03T17:30:30.723Z,48.60
2022-09-03T17:33:35.894Z,49.25
2022-09-03T17:36:15.431Z,49.16
2022-09-03T17:39:30.031Z,49.81
2022-09-03T17:42:06.240Z,52.60
2022-09-03T17:44:56.022Z,54.74
2022-09-03T17:47:54.357Z,54.52
2022-09-03T17:50:27.369Z,55.35
2022-09-03T17:53:01.088Z,56.90
2022-09-03T17:55:37.010Z,55.43
2022-09-03T17:58:15.329Z,55.65
2022-09-03T18:00:55.242Z,56.86
2022-09-03T18:03:28.670Z,55.62
2022-09-03T18:06:04.224Z,62.69
2022-09-03T18:08:42.830Z,63.65
2022-09-03T18:11:15.226Z,61.95
2022-09-03T18:13:55.692Z,68.91
2022-09-03T18:16:29.565Z,70.29
2022-09-03T18:19:07.651Z,70.71
2022-09-03T18:21:57.458Z,79.27
2022-09-03T18:24:51.449Z,80.05
2022-09-03T18:27:42.303Z,79.19
2022-09-03T18:30:33.622Z,83.98
2022-09-03T18:33:21.586Z,90.46
2022-09-03T18:36:07.487Z,87.11
2022-09-03T18:38:56.652Z,92.54
2022-09-03T18:42:18.870Z,99.93
2022-09-03T18:45:22.504Z,91.33
2022-09-03T18:48:25.020Z,100.00
2022-09-03T18:51:20.985Z,100.00
2022-09-03T18:54:16.350Z,100.00
2022-09-03T18:57:09.620Z,99.94
2022-09-03T19:00:25.497Z,100.00
2022-09-03T19:03:35.170Z,100.00
2022-09-03T19:06:34.885Z,100.00
2022-09-03T19:09:30.614Z,100.00
2022-09-03T19:12:31.463Z,100.00
2022-09-03T19:15:26.123Z,100.00
2022-09-03T19:18:35.845Z,100.00
2022-09-03T19:21:35.996Z,100.00
2022-09-03T19:24:24.363Z,100.00
2022-09-03T19:27:51.824Z,100.00
2022-09-03T19:30:33.618Z,100.00
2022-09-03T19:33:32.012Z,100.00
2022-09-03T19:36:30.443Z,100.00
2022-09-03T19:39:43.382Z,100.00
2022-09-03T19:42:40.373Z,100.00
2022-09-03T19:45:39.437Z,100.00
2022-09-03T19:48:38.428Z,100.00
2022-09-03T19:51:33.259Z,100.00
2022-09-03T19:54:22.885Z,100.00
2022-09-03T19:57:10.160Z,100.00
2022-09-03T19:59:59.888Z,100.00
2022-09-03T20:02:46.397Z,100.00
2022-09-03T20:05:39.386Z,100.00
2022-09-03T20:08:26.447Z,100.00
2022-09-03T20:10:59.046Z,100.00
2022-09-03T20:13:28.615Z,100.00
2022-09-03T20:16:08.628Z,100.00
2022-09-03T20:18:49.092Z,100.00
2022-09-03T20:21:26.281Z,100.00
2022-09-03T20:24:03.053Z,100.00
2022-09-03T20:26:45.365Z,100.00
2022-09-03T20:29:36.218Z,100.00
2022-09-03T20:32:12.258Z,100.00
2022-09-03T20:34:51.754Z,100.00
2022-09-03T20:37:30.732Z,100.00
2022-09-03T20:40:27.015Z,100.00
2022-09-03T20:43:20.086Z,100.00
2022-09-03T20:46:07.139Z,100.00
2022-09-03T20:48:47.191Z,100.00
2022-09-03T20:51:22.710Z,100.00
2022-09-03T20:54:08.662Z,100.00
2022-09-03T20:57:01.392Z,100.00
2022-09-03T20:59:48.286Z,100.00
2022-09-03T21:02:31.807Z,100.00
2022-09-03T21:05:10.593Z,100.00
2022-09-03T21:07:52.531Z,100.00
2022-09-03T21:10:33.463Z,100.00
2022-09-03T21:13:13.285Z,100.00
2022-09-03T21:15:56.678Z,100.00
2022-09-03T21:18:38.291Z,100.00
2022-09-03T21:21:20.227Z,100.00
2022-09-03T21:23:58.663Z,100.00
2022-09-03T21:26:32.418Z,100.00
2022-09-03T21:29:08.739Z,100.00
2022-09-03T21:31:43.579Z,100.00
2022-09-03T21:34:21.738Z,100.00
2022-09-03T21:36:51.907Z,100.00
2022-09-03T21:39:27.292Z,100.00
2022-09-03T21:42:04.108Z,100.00
2022-09-03T21:44:49.439Z,100.00
2022-09-03T21:47:21.454Z,100.00
2022-09-03T21:50:17.980Z,100.00
2022-09-03T21:52:55.255Z,100.00
2022-09-03T21:55:33.073Z,100.00
2022-09-03T21:58:20.106Z,100.00
2022-09-03T22:00:52.789Z,100.00
2022-09-03T22:03:21.856Z,100.00
2022-09-03T22:05:58.333Z,100.00
2022-09-03T22:08:34.475Z,100.00
2022-09-03T22:11:13.617Z,100.00
2022-09-03T22:13:49.493Z,100.00
2022-09-03T22:16:28.082Z,100.00
2022-09-03T22:18:56.573Z,100.00
2022-09-03T22:21:32.842Z,100.00
2022-09-03T22:24:19.043Z,100.00
2022-09-03T22:26:56.627Z,100.00
2022-09-03T22:29:41.503Z,100.00
2022-09-03T22:32:27.386Z,100.00
2022-09-03T22:35:44.341Z,100.00
2022-09-03T22:38:38.658Z,100.00
2022-09-03T22:41:23.762Z,100.00
2022-09-03T22:44:03.422Z,100.00
2022-09-03T22:46:42.310Z,100.00
2022-09-03T22:49:28.262Z,100.00
2022-09-03T22:52:10.730Z,100.00
2022-09-03T22:54:56.307Z,100.00
2022-09-03T22:57:28.910Z,100.00
2022-09-03T23:00:03.038Z,100.00
2022-09-03T23:02:33.742Z,100.00
2022-09-03T23:05:08.669Z,100.00
2022-09-03T23:07:58.266Z,100.00
2022-09-03T23:10:33.287Z,100.00
2022-09-03T23:13:10.559Z,100.00
2022-09-03T23:15:42.044Z,100.00
2022-09-03T23:18:17.867Z,100.00
2022-09-03T23:20:57.111Z,100.00
2022-09-03T23:23:31.169Z,100.00
2022-09-03T23:26:13.649Z,100.00
2022-09-03T23:28:48.185Z,100.00
2022-09-03T23:31:22.750Z,100.00
2022-09-03T23:33:56.080Z,100.00
2022-09-03T23:37:05.801Z,100.00
2022-09-03T23:40:09.058Z,100.00
2022-09-03T23:42:57.375Z,100.00
2022-09-03T23:45:40.247Z,100.00
2022-09-03T23:48:24.051Z,100.00
2022-09-03T23:51:06.110Z,100.00
2022-09-03T23:53:49.130Z,100.00
2022-09-03T23:56:55.457Z,100.00
2022-09-03T23:59:39.981Z,100.00
